Time;durP1;ratioP1;P1;durP2;ratioP2;P2;SDS_P1;SDS_P2;PMS_P1;PMS_P2;Temp;Humidity;BMP_temperature;BMP_pressure;BME280_temperature;BME280_humidity;BME280_pressure;Samples;Min_cycle;Max_cycle;Signal;HPM_P1;HPM_P2
2022/06/22 00:01:10;;;;;;;3.55;1.55;;;18.50;99.90;;;17.77;100.00;97074.38;5044685;28;20080;-70
2022/06/22 00:03:37;;;;;;;4.07;1.50;;;18.40;99.90;;;17.68;100.00;97071.66;5039946;28;20055;-70
2022/06/22 00:06:05;;;;;;;4.47;1.48;;;18.20;99.90;;;17.66;100.00;97063.06;5039061;28;20052;-70
2022/06/22 00:08:38;;;;;;;7.15;1.77;;;18.20;99.90;;;17.61;100.00;97059.94;5039786;28;20572;-69
2022/06/22 00:11:14;;;;;;;4.50;1.67;;;18.20;99.90;;;17.47;100.00;97055.78;5040566;28;20826;-69
2022/06/22 00:13:52;;;;;;;3.95;1.70;;;18.10;99.90;;;17.51;100.00;97055.44;5038525;28;20141;-70
2022/06/22 00:16:32;;;;;;;4.75;1.73;;;18.00;99.90;;;17.53;100.00;97053.53;5041065;28;20151;-70
2022/06/22 00:19:00;;;;;;;4.45;1.65;;;18.00;99.90;;;17.43;100.00;97043.91;5039664;28;20065;-69
2022/06/22 00:21:34;;;;;;;5.95;1.73;;;18.00;99.90;;;17.30;100.00;97039.59;5039499;28;20045;-69
2022/06/22 00:24:30;;;;;;;4.68;1.80;;;17.90;99.90;;;17.08;100.00;97035.22;5042674;28;20053;-69
2022/06/22 00:27:35;;;;;;;2.67;1.20;;;17.80;99.90;;;17.18;100.00;97032.69;5041275;28;20140;-69
2022/06/22 00:30:31;;;;;;;3.55;1.45;;;17.80;99.90;;;17.18;100.00;97026.63;5041025;28;20073;-70
2022/06/22 00:33:22;;;;;;;7.50;1.90;;;17.70;99.90;;;17.30;100.00;97031.72;5043391;28;20049;-70
2022/06/22 00:36:12;;;;;;;5.35;1.55;;;17.80;99.90;;;17.32;100.00;97031.63;5042379;28;20139;-70
2022/06/22 00:38:40;;;;;;;7.03;1.38;;;17.90;99.90;;;17.42;100.00;97027.31;5041666;28;20045;-69
2022/06/22 00:41:24;;;;;;;6.53;1.65;;;17.90;99.90;;;17.52;100.00;97019.56;5044442;28;20788;-69
2022/06/22 00:43:52;;;;;;;3.63;1.38;;;17.90;99.90;;;17.47;100.00;97029.56;5037705;28;20132;-69
2022/06/22 00:46:22;;;;;;;3.30;1.48;;;18.00;99.90;;;17.47;100.00;97019.06;5039842;28;20079;-69
2022/06/22 00:48:54;;;;;;;4.72;1.75;;;18.00;99.90;;;17.44;100.00;97007.03;5040026;28;20065;-69
2022/06/22 00:51:36;;;;;;;5.45;1.83;;;18.00;99.90;;;17.38;100.00;97025.03;5040723;28;20045;-69
2022/06/22 00:54:11;;;;;;;5.78;1.45;;;18.00;99.90;;;17.45;100.00;97032.31;5038613;28;20053;-69
2022/06/22 00:56:59;;;;;;;4.53;1.58;;;18.00;99.90;;;17.51;100.00;97041.47;5037960;28;20139;-69
2022/06/22 00:59:37;;;;;;;4.60;1.70;;;18.00;99.90;;;17.53;100.00;97043.03;5041808;28;20132;-69
2022/06/22 01:02:18;;;;;;;4.03;1.48;;;18.00;99.90;;;17.66;100.00;97052.56;5039028;28;20107;-69
2022/06/22 01:05:07;;;;;;;5.13;1.40;;;18.00;99.90;;;17.77;100.00;97066.50;5040674;28;20171;-69
2022/06/22 01:07:55;;;;;;;3.55;1.40;;;18.10;99.90;;;17.77;100.00;97066.50;5040931;28;20071;-69
2022/06/22 01:10:57;;;;;;;4.57;1.38;;;18.20;99.90;;;17.48;100.00;97058.31;5039436;28;20084;-68
2022/06/22 01:13:45;;;;;;;7.18;1.60;;;18.00;99.90;;;17.41;100.00;97051.88;5035397;28;20133;-69
2022/06/22 01:16:31;;;;;;;5.32;1.40;;;18.00;99.90;;;17.30;100.00;97046.63;5038948;28;20131;-70
2022/06/22 01:19:30;;;;;;;2.35;1.23;;;17.90;99.90;;;17.33;100.00;97043.75;5039673;28;20061;-72
2022/06/22 01:22:28;;;;;;;4.35;1.40;;;17.90;99.90;;;17.30;100.00;97028.28;5043728;28;20053;-70
2022/06/22 01:25:24;;;;;;;3.92;1.67;;;17.80;99.90;;;17.28;100.00;97023.13;5047622;28;20133;-70
2022/06/22 01:27:51;;;;;;;4.10;1.50;;;17.80;99.90;;;17.29;100.00;97024.00;5041768;28;20471;-70
2022/06/22 01:30:29;;;;;;;4.25;1.80;;;17.80;99.90;;;17.11;100.00;97015.78;5042409;28;20140;-70
2022/06/22 01:32:56;;;;;;;5.43;1.90;;;17.70;99.90;;;16.91;100.00;97018.16;5046480;28;20128;-70
2022/06/22 01:35:31;;;;;;;4.22;1.73;;;17.60;99.90;;;16.95;100.00;97012.69;5044968;28;20144;-70
2022/06/22 01:38:11;;;;;;;3.63;1.38;;;17.60;99.90;;;17.05;100.00;97011.81;5050654;28;20068;-70
2022/06/22 01:40:49;;;;;;;3.03;1.50;;;17.60;99.90;;;17.12;100.00;97006.94;5044984;28;20128;-70
2022/06/22 01:43:45;;;;;;;4.75;1.42;;;17.60;99.90;;;17.14;100.00;97000.63;5047387;28;20072;-71
2022/06/22 01:46:45;;;;;;;3.78;1.40;;;17.60;99.90;;;17.25;100.00;96994.53;5036297;28;20547;-71
2022/06/22 01:49:36;;;;;;;3.95;1.50;;;17.70;99.90;;;17.25;100.00;96997.16;5048950;28;20045;-71
2022/06/22 01:52:21;;;;;;;5.38;1.80;;;17.70;99.90;;;17.46;100.00;96992.00;5047242;28;20044;-71
2022/06/22 01:55:03;;;;;;;4.38;1.70;;;17.80;99.90;;;17.14;100.00;96984.88;5046406;28;20049;-71
2022/06/22 01:57:40;;;;;;;4.05;1.58;;;17.80;99.90;;;16.98;100.00;96973.13;5046004;28;20079;-71
2022/06/22 02:00:16;;;;;;;5.35;1.58;;;17.60;99.90;;;16.86;100.00;96969.66;5029398;28;20076;-71
2022/06/22 02:02:57;;;;;;;4.18;1.48;;;17.50;99.90;;;16.89;100.00;96956.31;5044731;28;20167;-71
2022/06/22 02:05:40;;;;;;;6.15;2.10;;;17.50;99.90;;;16.84;100.00;96951.44;5046472;28;20136;-70
2022/06/22 02:08:30;;;;;;;6.88;1.88;;;17.40;99.90;;;16.73;100.00;96949.59;5046932;28;20136;-71
2022/06/22 02:11:09;;;;;;;5.60;1.80;;;17.30;99.90;;;16.92;100.00;96953.44;5046995;28;20099;-71
2022/06/22 02:13:54;;;;;;;3.67;1.42;;;17.40;99.90;;;16.88;100.00;96944.16;5048054;28;20041;-71
2022/06/22 02:16:35;;;;;;;4.47;1.90;;;17.40;99.90;;;16.84;100.00;96951.44;5046559;28;20059;-70
2022/06/22 02:19:02;;;;;;;2.85;1.50;;;17.40;99.90;;;16.88;100.00;96962.53;5063737;28;20488;-70
2022/06/22 02:21:42;;;;;;;6.00;1.50;;;17.30;99.90;;;16.84;100.00;96971.56;5053300;28;20149;-71
2022/06/22 02:24:40;;;;;;;3.13;1.35;;;17.40;99.90;;;17.00;100.00;96979.06;5054401;28;20131;-71
2022/06/22 02:27:16;;;;;;;4.90;1.40;;;17.50;99.90;;;17.16;100.00;96979.53;5042282;28;20128;-70
2022/06/22 02:29:54;;;;;;;2.38;1.17;;;17.60;99.90;;;17.26;100.00;96993.56;5046577;28;20176;-71
2022/06/22 02:32:38;;;;;;;3.80;1.80;;;17.60;99.90;;;16.86;100.00;96999.31;5043417;28;20049;-71
2022/06/22 02:35:09;;;;;;;3.67;1.83;;;17.50;99.90;;;16.76;100.00;97002.72;5046358;28;20162;-70
2022/06/22 02:37:43;;;;;;;3.88;1.85;;;17.30;99.90;;;16.66;100.00;96997.38;5050819;28;20049;-71
2022/06/22 02:40:17;;;;;;;5.38;1.50;;;17.30;99.90;;;16.82;100.00;96994.44;5051917;28;20170;-71
2022/06/22 02:45:31;;;;;;;4.75;1.60;;;17.30;99.90;;;16.69;100.00;96994.50;5047923;28;20136;-70
2022/06/22 02:48:18;;;;;;;4.65;1.75;;;17.20;99.90;;;16.60;100.00;96982.09;5044729;28;20223;-70
2022/06/22 02:51:01;;;;;;;4.75;1.95;;;17.20;99.90;;;16.47;100.00;96969.13;5046303;28;20087;-70
2022/06/22 02:53:41;;;;;;;3.42;2.03;;;17.10;99.90;;;16.31;100.00;96964.22;5044968;28;20622;-70
2022/06/22 02:56:22;;;;;;;6.05;1.92;;;17.00;99.90;;;15.97;100.00;96953.66;5042418;28;20084;-70
2022/06/22 02:58:49;;;;;;;4.18;1.90;;;16.80;99.90;;;15.87;100.00;96952.66;5040379;28;20080;-70
2022/06/22 03:01:24;;;;;;;5.45;2.20;;;16.70;99.90;;;15.76;100.00;96953.47;5042930;28;20053;-70
2022/06/22 03:04:07;;;;;;;2.78;1.65;;;16.60;99.90;;;15.95;100.00;96952.09;5047050;28;20056;-70
2022/06/22 03:06:39;;;;;;;3.90;2.03;;;16.50;99.90;;;16.16;100.00;96963.56;5047101;28;20053;-70
2022/06/22 03:09:07;;;;;;;5.80;1.80;;;16.60;99.90;;;16.25;100.00;96973.34;5046048;28;20083;-70
2022/06/22 03:11:41;;;;;;;3.55;1.50;;;16.70;99.90;;;16.37;100.00;96976.81;5045912;28;20128;-70
2022/06/22 03:14:24;;;;;;;3.90;1.58;;;16.80;99.90;;;16.42;100.00;96985.19;5046804;28;20140;-69
2022/06/22 03:17:05;;;;;;;;;;;16.90;99.90;;;16.35;100.00;96991.00;5045592;28;20116;-69
2022/06/22 03:19:43;;;;;;;4.43;1.90;;;17.00;99.90;;;16.52;100.00;96999.25;5044872;28;19925;-69
2022/06/22 03:22:22;;;;;;;2.90;1.15;;;17.00;99.90;;;16.78;100.00;97006.06;5044192;28;20496;-69
2022/06/22 03:25:07;;;;;;;3.35;1.25;;;17.10;99.90;;;16.93;100.00;96997.88;5048587;28;20048;-69
2022/06/22 03:27:40;;;;;;;3.40;1.85;;;17.30;99.90;;;16.76;100.00;97000.94;5026169;28;20152;-69
2022/06/22 03:30:17;;;;;;;3.72;1.50;;;17.30;99.90;;;16.83;100.00;97002.19;5058565;28;20059;-70
2022/06/22 03:32:59;;;;;;;4.63;1.60;;;17.30;99.90;;;16.77;100.00;96992.13;5045305;28;20041;-71
2022/06/22 03:35:34;;;;;;;;;;;17.30;99.90;;;16.49;100.00;97002.13;5047498;28;20041;-70
2022/06/22 03:38:12;;;;;;;6.40;2.00;;;17.10;99.90;;;16.34;100.00;97005.88;5042134;28;19920;-70
2022/06/22 03:40:51;;;;;;;4.15;1.50;;;17.00;99.90;;;16.44;100.00;97014.69;5030156;28;20147;-70
2022/06/22 03:43:31;;;;;;;2.85;1.35;;;17.10;99.90;;;16.82;100.00;97008.38;5045773;28;20579;-70
2022/06/22 03:46:26;;;;;;;2.88;1.52;;;17.20;99.90;;;17.03;100.00;97011.13;5046187;28;20087;-70
2022/06/22 03:49:07;;;;;;;7.03;1.60;;;17.40;99.90;;;16.97;100.00;97021.25;5046449;28;20444;-70
2022/06/22 03:52:12;;;;;;;4.53;1.60;;;17.50;99.90;;;17.05;100.00;97018.88;5044549;28;20071;-70
2022/06/22 03:54:51;;;;;;;5.03;2.13;;;17.50;99.90;;;16.71;100.00;97024.06;5044608;28;20069;-71
2022/06/22 03:57:34;;;;;;;5.53;1.90;;;17.40;99.90;;;16.73;100.00;97017.72;5043476;28;20175;-70
2022/06/22 04:00:07;;;;;;;3.10;1.40;;;17.40;99.90;;;16.96;100.00;97019.59;5047961;28;20071;-70
2022/06/22 04:02:34;;;;;;;4.00;1.67;;;17.40;99.90;;;16.93;100.00;97018.88;5043483;28;20169;-70
2022/06/22 04:05:03;;;;;;;3.45;1.85;;;17.50;99.90;;;16.81;100.00;97019.81;5046288;28;20061;-70
2022/06/22 04:07:40;;;;;;;4.63;1.70;;;17.30;99.90;;;16.77;100.00;97023.59;5047689;28;20051;-70
2022/06/22 04:10:37;;;;;;;3.40;1.75;;;17.30;99.90;;;16.91;100.00;97031.25;5046938;28;20086;-70
2022/06/22 04:13:13;;;;;;;5.60;1.67;;;17.40;99.90;;;16.93;100.00;97025.91;5045224;28;20072;-70
2022/06/22 04:16:02;;;;;;;4.40;1.75;;;17.50;99.90;;;16.82;100.00;97012.78;5049178;28;20463;-70
2022/06/22 04:18:39;;;;;;;4.30;1.63;;;17.40;99.90;;;16.82;100.00;97005.75;5044982;28;20074;-71
2022/06/22 04:21:11;;;;;;;4.20;1.58;;;17.40;99.90;;;16.91;100.00;97005.03;5048064;28;20136;-71
2022/06/22 04:23:50;;;;;;;4.87;1.37;;;17.50;99.90;;;17.25;100.00;97007.66;5045478;28;20080;-70
2022/06/22 04:26:31;;;;;;;3.92;1.40;;;17.60;99.90;;;17.31;100.00;97004.56;5040569;28;20072;-70
2022/06/22 04:29:05;;;;;;;6.05;1.80;;;17.70;99.90;;;17.49;100.00;97006.66;5043960;28;20092;-69
2022/06/22 04:31:36;;;;;;;3.00;1.30;;;17.80;99.90;;;17.63;100.00;97018.69;5046539;28;20432;-69
2022/06/22 04:34:15;;;;;;;4.05;1.30;;;17.80;99.90;;;17.58;100.00;97020.84;5039503;28;20067;-69
2022/06/22 04:36:52;;;;;;;3.60;1.80;;;17.90;99.90;;;17.28;100.00;97022.31;5048006;28;20120;-71
2022/06/22 04:39:31;;;;;;;4.53;1.63;;;17.90;99.90;;;17.07;100.00;97020.41;5044997;28;20137;-69
2022/06/22 04:42:03;;;;;;;2.28;1.35;;;17.70;99.90;;;17.03;100.00;97018.97;5040463;28;20480;-69
2022/06/22 04:44:42;;;;;;;3.00;1.77;;;17.70;99.90;;;17.20;100.00;97019.47;5040286;28;20119;-69
2022/06/22 04:47:28;;;;;;;3.25;1.30;;;17.70;99.90;;;17.40;100.00;97018.72;5050760;28;20136;-70
2022/06/22 04:50:02;;;;;;;3.45;1.35;;;17.80;99.90;;;17.50;100.00;97022.28;5044146;28;20730;-69
2022/06/22 04:52:37;;;;;;;3.70;1.33;;;18.00;99.90;;;17.83;100.00;97028.44;5041551;28;20071;-71
2022/06/22 04:55:06;;;;;;;5.80;1.30;;;18.10;99.90;;;17.94;100.00;97027.56;5042738;28;20045;-69
2022/06/22 04:57:38;;;;;;;3.83;1.30;;;18.20;99.90;;;17.81;100.00;97019.84;5043551;28;20048;-69
2022/06/22 05:00:15;;;;;;;4.00;1.50;;;18.40;99.90;;;17.81;100.00;97027.72;5049595;28;20129;-69
2022/06/22 05:02:43;;;;;;;3.28;1.63;;;18.40;99.90;;;17.90;100.00;97034.88;5053554;28;20055;-70
2022/06/22 05:05:26;;;;;;;4.05;1.30;;;18.50;99.90;;;17.99;100.00;97033.28;5047903;28;20128;-70
2022/06/22 05:08:02;;;;;;;5.07;1.23;;;18.50;99.90;;;18.10;100.00;97041.13;5049174;28;20052;-70
2022/06/22 05:10:49;;;;;;;2.28;1.25;;;18.80;99.90;;;18.16;100.00;97042.44;5054459;28;20104;-71
2022/06/22 05:13:35;;;;;;;2.95;1.10;;;18.60;99.90;;;18.37;100.00;97043.28;5049975;28;20132;-71
2022/06/22 05:16:07;;;;;;;2.50;1.20;;;18.70;99.90;;;18.56;100.00;97054.88;5048775;28;20228;-70
2022/06/22 05:18:37;;;;;;;3.63;1.40;;;18.80;99.90;;;18.61;100.00;97050.09;5040200;28;20717;-70
2022/06/22 05:21:44;;;;;;;6.10;1.38;;;18.70;99.90;;;18.43;100.00;97047.19;5056864;28;20464;-70
2022/06/22 05:24:18;;;;;;;3.97;1.30;;;18.80;99.90;;;18.32;100.00;97036.75;5052363;28;20142;-70
2022/06/22 05:26:47;;;;;;;3.40;1.35;;;18.90;99.90;;;18.59;100.00;97038.88;5051310;28;20488;-70
2022/06/22 05:29:32;;;;;;;2.60;1.15;;;19.00;99.90;;;18.74;100.00;97036.75;5055473;28;20425;-70
2022/06/22 05:32:05;;;;;;;4.55;1.20;;;19.10;99.90;;;19.09;100.00;97038.19;5048656;28;20141;-71
2022/06/22 05:34:38;;;;;;;2.83;1.20;;;19.20;99.90;;;19.10;100.00;97034.63;5048137;28;20128;-70
2022/06/22 05:37:12;;;;;;;4.13;1.00;;;19.40;99.90;;;19.11;100.00;97034.50;5051909;28;20083;-70
2022/06/22 05:39:41;;;;;;;3.10;1.40;;;19.40;99.90;;;18.80;100.00;97031.84;5052412;28;20541;-70
2022/06/22 05:42:10;;;;;;;3.67;1.20;;;19.40;99.90;;;19.00;100.00;97031.94;5048712;28;20167;-71
2022/06/22 05:44:38;;;;;;;2.17;0.90;;;19.50;99.90;;;19.04;100.00;97035.94;5052340;28;20079;-70
2022/06/22 05:47:16;;;;;;;3.55;0.98;;;19.60;99.90;;;18.98;100.00;97031.25;5053898;28;20136;-70
2022/06/22 05:50:28;;;;;;;3.40;1.13;;;19.60;99.90;;;18.80;100.00;97033.63;5044576;28;20072;-70
2022/06/22 05:53:33;;;;;;;2.85;1.00;;;19.70;99.90;;;18.88;100.00;97030.34;5048668;28;20041;-70
2022/06/22 05:56:25;;;;;;;5.25;1.10;;;19.70;99.90;;;18.85;100.00;97022.72;5045766;28;20140;-71
2022/06/22 05:59:24;;;;;;;2.67;0.93;;;19.70;99.90;;;19.10;100.00;97030.19;5050591;28;20084;-70
2022/06/22 06:02:05;;;;;;;5.10;1.20;;;19.70;99.90;;;18.86;100.00;97033.13;5052255;28;20127;-71
2022/06/22 06:05:10;;;;;;;3.50;1.05;;;19.70;99.90;;;19.09;100.00;97030.28;5048373;28;20057;-70
2022/06/22 06:07:45;;;;;;;3.08;1.10;;;19.70;99.90;;;18.84;100.00;97039.44;5051353;28;20044;-70
2022/06/22 06:10:26;;;;;;;2.47;1.17;;;19.70;99.90;;;19.21;100.00;97051.13;5059174;28;20121;-71
2022/06/22 06:13:00;;;;;;;2.08;1.10;;;19.70;99.90;;;19.17;100.00;97047.09;5055467;28;20114;-70
2022/06/22 06:15:33;;;;;;;5.50;1.38;;;19.80;99.90;;;19.08;100.00;97045.25;5045362;28;20081;-70
2022/06/22 06:18:02;;;;;;;3.30;1.42;;;19.90;99.90;;;19.02;100.00;97046.63;5049397;28;20217;-70
2022/06/22 06:20:38;;;;;;;4.45;1.45;;;19.90;99.90;;;19.47;100.00;97042.78;5047155;28;20475;-70
2022/06/22 06:23:29;;;;;;;5.05;1.50;;;20.00;99.90;;;19.27;100.00;97051.56;5046695;28;20140;-71
2022/06/22 06:28:55;;;;;;;6.13;1.45;;;20.20;99.90;;;19.59;100.00;97039.09;5053305;28;20044;-70
2022/06/22 06:31:32;;;;;;;6.25;1.25;;;20.40;99.90;;;20.27;100.00;97036.56;5063016;28;20607;-71
2022/06/22 06:34:00;;;;;;;2.17;1.00;;;20.60;99.90;;;20.45;100.00;97041.94;5044148;28;20103;-71
2022/06/22 06:36:40;;;;;;;4.53;1.20;;;20.70;99.90;;;20.26;100.00;97039.31;5027916;28;20515;-70
2022/06/22 06:39:17;;;;;;;2.70;1.00;;;20.80;99.90;;;20.54;100.00;97042.09;5041975;28;20540;-70
2022/06/22 06:42:03;;;;;;;3.08;1.00;;;20.90;99.90;;;20.73;100.00;97046.50;5041680;28;20161;-70
2022/06/22 06:44:41;;;;;;;3.65;0.90;;;20.80;99.90;;;20.91;100.00;97039.53;5046287;28;20052;-70
2022/06/22 06:47:22;;;;;;;2.97;0.95;;;21.00;99.90;;;20.66;100.00;97047.09;5042577;28;20048;-70
2022/06/22 06:50:01;;;;;;;4.05;1.15;;;21.30;99.90;;;20.42;100.00;97044.88;5047234;28;20128;-71
2022/06/22 06:52:53;;;;;;;3.25;1.10;;;21.50;99.90;;;20.47;100.00;97041.81;5038368;28;20138;-70
2022/06/22 06:55:44;;;;;;;5.13;1.08;;;21.50;99.90;;;20.79;100.00;97038.88;5044722;28;20080;-70
2022/06/22 06:58:40;;;;;;;3.75;1.25;;;21.80;99.90;;;21.00;100.00;97041.31;5045939;28;20051;-70
2022/06/22 07:01:19;;;;;;;2.85;1.10;;;21.90;99.90;;;21.64;100.00;97038.84;5045632;28;20106;-70
2022/06/22 07:03:48;;;;;;;4.93;1.42;;;22.20;99.90;;;21.65;100.00;97053.72;5047933;28;20041;-71
2022/06/22 07:06:15;;;;;;;5.47;1.00;;;22.30;99.90;;;21.51;100.00;97053.25;5043184;28;20149;-70
2022/06/22 07:08:52;;;;;;;6.40;1.40;;;22.30;99.90;;;21.43;100.00;97061.03;5046086;28;20619;-70
2022/06/22 07:11:35;;;;;;;4.53;0.98;;;22.20;99.90;;;21.03;100.00;97059.50;5045947;28;20399;-71
2022/06/22 07:14:24;;;;;;;2.28;0.90;;;22.00;99.90;;;21.16;100.00;97064.44;5046151;28;20083;-70
2022/06/22 07:16:57;;;;;;;5.75;1.10;;;22.10;99.90;;;21.41;100.00;97064.81;5039260;28;20045;-71
2022/06/22 07:19:44;;;;;;;3.83;1.00;;;22.00;99.90;;;21.15;100.00;97060.16;5062301;28;20525;-71
2022/06/22 07:22:10;;;;;;;3.13;0.98;;;21.90;99.90;;;21.69;100.00;97053.28;5041493;28;20080;-71
2022/06/22 07:25:05;;;;;;;4.35;1.20;;;22.00;99.90;;;21.47;100.00;97053.69;5046303;28;20135;-70
2022/06/22 07:28:33;;;;;;;2.90;0.80;;;22.10;99.90;;;21.54;100.00;97057.38;5043222;28;20128;-71
2022/06/22 07:31:26;;;;;;;4.80;0.80;;;22.10;99.90;;;21.48;100.00;97056.19;4986578;28;20104;-72
2022/06/22 07:34:01;;;;;;;2.03;0.70;;;22.30;99.90;;;21.92;100.00;97047.59;5035004;28;20563;-70
2022/06/22 07:36:39;;;;;;;1.52;0.75;;;22.40;99.90;;;22.17;100.00;97051.31;5040414;28;20171;-70
2022/06/22 07:39:14;;;;;;;2.28;0.77;;;22.60;99.90;;;22.36;100.00;97050.34;5041749;28;20041;-70
2022/06/22 07:41:41;;;;;;;4.07;0.90;;;22.80;99.90;;;22.22;100.00;97046.41;5044350;28;20072;-70
2022/06/22 07:44:19;;;;;;;3.17;0.93;;;22.90;99.90;;;22.08;100.00;97050.38;5044108;28;20538;-70
2022/06/22 07:47:11;;;;;;;7.10;1.02;;;22.90;99.90;;;21.85;100.00;97054.41;5043591;28;20073;-70
2022/06/22 07:50:15;;;;;;;2.65;0.90;;;22.80;99.90;;;21.74;100.00;97049.38;5044786;28;20127;-71
2022/06/22 07:53:17;;;;;;;3.88;0.90;;;22.80;99.90;;;21.96;100.00;97048.94;4996682;28;20445;-70
2022/06/22 07:56:24;;;;;;;3.53;1.10;;;22.80;99.90;;;21.84;100.00;97047.50;5047511;28;20534;-70
2022/06/22 07:59:33;;;;;;;3.20;1.05;;;22.90;99.90;;;22.55;100.00;97044.88;5038741;28;20091;-71
2022/06/22 08:02:12;;;;;;;2.88;0.80;;;23.10;99.90;;;22.54;100.00;97051.16;5042707;28;20474;-71
2022/06/22 08:04:52;;;;;;;1.35;0.77;;;23.30;99.90;;;22.69;100.00;97055.88;5042981;28;20049;-70
2022/06/22 08:07:38;;;;;;;4.18;0.90;;;;;;;22.75;100.00;97056.09;5040477;28;20063;-69
2022/06/22 08:10:44;;;;;;;1.98;0.90;;;23.50;99.90;;;22.69;100.00;97059.38;5045799;28;20095;-69
2022/06/22 08:13:54;;;;;;;2.83;0.90;;;23.70;99.90;;;22.97;100.00;97048.66;5046923;28;20127;-69
2022/06/22 08:16:34;;;;;;;2.38;0.73;;;23.90;99.80;;;23.15;100.00;97045.97;5039766;28;20132;-69
2022/06/22 08:19:03;;;;;;;3.67;1.10;;;24.00;99.50;;;23.15;100.00;97038.03;5045131;28;20821;-69
2022/06/22 08:21:31;;;;;;;2.58;0.90;;;24.00;99.00;;;23.27;100.00;97042.06;5044795;28;20091;-69
2022/06/22 08:23:59;;;;;;;1.90;0.80;;;24.10;99.70;;;23.07;100.00;97035.34;5045921;28;20103;-70
2022/06/22 08:26:30;;;;;;;2.88;0.85;;;24.00;99.60;;;23.05;100.00;97034.66;5049751;28;20071;-69
2022/06/22 08:28:58;;;;;;;;;;;24.00;98.70;;;23.49;100.00;97034.53;5049119;28;20084;-69
2022/06/22 08:31:35;;;;;;;3.85;1.10;;;24.00;99.30;;;23.70;100.00;97039.44;5043599;28;19967;-69
2022/06/22 08:34:08;;;;;;;4.22;0.80;;;24.10;99.70;;;23.41;100.00;97040.63;5039385;28;20064;-69
2022/06/22 08:37:06;;;;;;;4.22;1.13;;;24.00;98.50;;;22.83;100.00;97044.75;5041306;28;20072;-71
2022/06/22 08:39:41;;;;;;;2.65;0.90;;;23.80;98.00;;;23.20;100.00;97041.03;5039606;28;20043;-70
2022/06/22 08:42:21;;;;;;;2.75;0.80;;;23.90;98.60;;;23.12;100.00;97035.69;5044300;28;20167;-70
2022/06/22 08:45:22;;;;;;;3.60;0.98;;;24.10;98.40;;;23.42;100.00;97039.63;5044026;28;20122;-70
2022/06/22 08:48:47;;;;;;;6.43;0.95;;;24.20;98.00;;;23.34;100.00;97040.44;5041923;28;20083;-70
2022/06/22 08:51:47;;;;;;;5.10;0.77;;;24.30;97.80;;;23.54;100.00;97033.06;5021904;28;20131;-71
2022/06/22 08:54:55;;;;;;;5.68;0.90;;;24.30;98.20;;;23.39;100.00;97030.19;5043591;28;20149;-70
2022/06/22 08:57:51;;;;;;;1.75;0.70;;;24.20;98.40;;;23.70;100.00;97013.75;5047867;28;20081;-71
2022/06/22 09:01:03;;;;;;;5.75;0.85;;;24.20;98.20;;;23.70;100.00;97015.59;5040965;28;20127;-70
2022/06/22 09:04:17;;;;;;;2.63;0.95;;;24.20;98.40;;;23.11;100.00;97012.88;5046452;28;20080;-70
2022/06/22 09:07:41;;;;;;;4.20;1.00;;;24.20;97.30;;;23.19;100.00;97010.25;5044475;28;20670;-70
2022/06/22 09:10:40;;;;;;;4.38;1.00;;;24.10;97.20;;;23.74;100.00;97017.78;5045122;28;20121;-71
2022/06/22 09:13:49;;;;;;;2.60;0.90;;;24.40;97.60;;;24.40;100.00;97023.16;5037933;28;20610;-71
2022/06/22 09:16:31;;;;;;;8.63;0.95;;;24.80;97.10;;;24.13;100.00;97027.78;5043751;28;20049;-71
2022/06/22 09:19:41;;;;;;;1.92;0.75;;;24.90;96.20;;;24.72;100.00;97032.13;5045579;28;20095;-70
2022/06/22 09:22:26;;;;;;;3.63;0.90;;;25.00;96.80;;;24.93;100.00;97036.91;5043219;28;20119;-70
2022/06/22 09:25:38;;;;;;;2.00;0.75;;;25.20;96.50;;;24.54;100.00;97037.59;5043005;28;20061;-70
2022/06/22 09:28:26;;;;;;;3.30;0.85;;;25.10;96.20;;;24.88;100.00;97042.72;5051664;28;20143;-70
2022/06/22 09:31:30;;;;;;;3.50;0.70;;;25.20;97.00;;;25.19;100.00;97036.72;5041339;28;20099;-70
2022/06/22 09:34:00;;;;;;;2.25;0.70;;;25.20;97.90;;;25.02;100.00;97044.69;5039093;28;20140;-70
2022/06/22 09:36:55;;;;;;;3.17;1.00;;;25.30;96.60;;;24.90;100.00;97050.50;5038494;28;20049;-70
2022/06/22 09:40:01;;;;;;;2.10;0.70;;;25.20;96.70;;;24.93;100.00;97056.34;5038277;28;20051;-70
2022/06/22 09:42:40;;;;;;;1.55;0.60;;;25.40;96.70;;;25.36;100.00;97048.97;5042106;28;20131;-70
2022/06/22 09:45:41;;;;;;;2.50;0.90;;;25.60;97.60;;;25.42;100.00;97050.09;5042759;28;20144;-70
2022/06/22 09:48:15;;;;;;;2.80;1.25;;;25.80;96.40;;;24.80;100.00;97054.19;5048800;28;20075;-70
2022/06/22 09:50:46;;;;;;;3.67;1.00;;;25.70;95.80;;;25.38;100.00;97051.41;5045016;28;20044;-71
2022/06/22 09:53:16;;;;;;;2.55;0.70;;;25.90;96.10;;;25.52;100.00;97053.38;5047134;28;20742;-70
2022/06/22 09:56:40;;;;;;;3.42;0.90;;;26.00;96.10;;;26.03;100.00;97055.66;5042828;28;20136;-70
2022/06/22 09:59:35;;;;;;;3.33;1.23;;;26.30;96.70;;;25.50;100.00;97059.84;5042085;28;20049;-70
2022/06/22 10:02:18;;;;;;;4.00;1.00;;;26.30;96.00;;;26.25;100.00;97054.00;5040908;28;20066;-70
2022/06/22 10:04:59;;;;;;;7.30;0.90;;;26.40;96.80;;;25.87;100.00;97064.53;5048943;28;20077;-71
2022/06/22 10:07:49;;;;;;;2.10;1.00;;;26.30;96.40;;;25.80;100.00;97063.56;5053196;28;20435;-70
2022/06/22 10:10:19;;;;;;;3.55;1.30;;;26.20;96.80;;;25.40;100.00;97060.88;5045339;28;20456;-71
2022/06/22 10:13:14;;;;;;;3.20;1.10;;;26.40;97.20;;;25.93;100.00;97058.50;5047712;28;20037;-71
2022/06/22 10:16:10;;;;;;;3.80;1.13;;;26.50;97.90;;;26.18;100.00;97061.84;5049865;28;20057;-71
2022/06/22 10:19:05;;;;;;;3.15;1.20;;;26.70;97.90;;;25.05;100.00;97073.56;5050744;28;20411;-70
2022/06/22 10:21:35;;;;;;;5.75;1.40;;;26.60;97.40;;;25.23;100.00;97069.91;5046482;28;20186;-70
2022/06/22 10:24:20;;;;;;;5.10;1.65;;;26.20;97.90;;;25.28;100.00;97062.25;5045667;28;20136;-70
2022/06/22 10:27:17;;;;;;;2.17;1.17;;;26.00;98.10;;;25.83;100.00;97068.50;5048568;28;20087;-70
2022/06/22 10:30:10;;;;;;;2.17;1.25;;;26.10;98.50;;;26.03;100.00;97068.94;5024206;28;20497;-70
2022/06/22 10:33:04;;;;;;;2.13;1.27;;;26.30;99.40;;;25.09;100.00;97078.50;5047952;28;20075;-71
2022/06/22 10:36:18;;;;;;;4.10;1.38;;;26.00;98.40;;;25.40;100.00;97065.38;5046453;28;20045;-72
2022/06/22 10:39:13;;;;;;;5.57;1.27;;;25.80;98.70;;;25.07;100.00;97077.88;5044384;28;20217;-71
2022/06/22 10:45:25;;;;;;;4.88;1.80;;;25.70;99.50;;;23.82;100.00;97087.69;5042551;28;20683;-70
2022/06/22 10:48:35;;;;;;;4.88;1.75;;;25.50;99.60;;;23.41;100.00;97085.66;5046360;28;20052;-70
2022/06/22 10:51:59;;;;;;;5.15;2.00;;;25.10;99.90;;;23.06;100.00;97100.69;5039547;28;20079;-70
2022/06/22 10:54:53;;;;;;;6.97;2.10;;;24.60;99.90;;;23.75;100.00;97088.31;5007093;28;20102;-70
2022/06/22 10:57:39;;;;;;;3.47;1.92;;;24.70;99.90;;;24.35;100.00;97099.75;5049592;28;20495;-70
2022/06/22 11:00:20;;;;;;;5.75;1.88;;;24.70;99.90;;;24.18;100.00;97097.06;5041988;28;20309;-70
2022/06/22 11:03:17;;;;;;;8.30;2.13;;;24.80;99.90;;;23.75;100.00;97092.78;5044232;28;20045;-70
2022/06/22 11:06:22;;;;;;;6.28;2.33;;;24.80;99.90;;;24.09;100.00;97090.09;5046303;28;20049;-70
2022/06/22 11:09:02;;;;;;;6.05;2.63;;;24.60;99.90;;;24.15;100.00;97089.44;5044174;28;20083;-70
2022/06/22 11:11:41;;;;;;;8.75;2.40;;;24.80;99.90;;;23.48;100.00;97091.97;5042150;28;20143;-70
2022/06/22 11:14:41;;;;;;;5.22;2.67;;;24.60;99.90;;;23.82;100.00;97088.50;5044421;28;20131;-70
2022/06/22 11:18:00;;;;;;;6.35;2.83;;;24.60;99.90;;;23.48;100.00;97085.84;5039469;28;20079;-70
2022/06/22 11:20:39;;;;;;;6.05;2.83;;;24.70;99.90;;;23.71;100.00;97091.41;5043072;28;20048;-71
2022/06/22 11:23:14;;;;;;;7.18;3.30;;;24.40;99.90;;;23.95;100.00;97094.19;5045617;28;20076;-70
2022/06/22 11:32:57;;;;;;;7.93;4.22;;;24.20;99.90;;;22.42;100.00;97109.72;5048169;28;20053;-70
2022/06/22 11:36:06;;;;;;;7.88;4.15;;;23.90;99.90;;;22.97;100.00;97106.88;5035732;28;20143;-70
2022/06/22 11:38:49;;;;;;;8.30;5.03;;;23.60;99.90;;;22.45;100.00;97107.59;5045839;28;20132;-71